Time;durP1;ratioP1;P1;durP2;ratioP2;P2;SDS_P1;SDS_P2;PMS_P1;PMS_P2;Temp;Humidity;BMP_temperature;BMP_pressure;BME280_temperature;BME280_humidity;BME280_pressure;Samples;Min_cycle;Max_cycle;Signal;HPM_P1;HPM_P2
2022/12/22 03:26:16;;;;;;;46.20;23.93;;;;;;;0.12;100.00;99733.00;5052439;28;20261;-52
2022/12/22 03:28:43;;;;;;;38.07;22.63;;;;;;;0.00;100.00;99733.69;5052097;28;20288;-51
2022/12/22 03:31:09;;;;;;;44.63;23.47;;;;;;;-0.17;100.00;99720.63;5052276;28;20201;-52
2022/12/22 03:33:38;;;;;;;40.10;22.47;;;;;;;-0.14;100.00;99725.78;5051997;28;20230;-52
2022/12/22 03:36:06;;;;;;;43.03;23.40;;;;;;;-0.11;100.00;99724.97;5051901;28;20224;-52
2022/12/22 03:38:34;;;;;;;38.87;22.23;;;;;;;-0.15;100.00;99718.97;5052094;28;20200;-50
2022/12/22 03:41:01;;;;;;;36.80;21.00;;;;;;;-0.26;100.00;99714.50;5051939;28;20210;-52
2022/12/22 03:46:32;;;;;;;46.30;22.97;;;;;;;0.03;100.00;99726.06;5051849;28;20507;-57
2022/12/22 03:49:10;;;;;;;51.93;24.80;;;;;;;0.02;100.00;99723.47;5051994;28;20201;-57
2022/12/22 03:51:39;;;;;;;55.40;25.67;;;;;;;0.10;100.00;99725.34;5051950;28;20196;-57
2022/12/22 03:54:06;;;;;;;47.83;25.00;;;;;;;0.05;100.00;99726.09;5051823;28;20254;-57
2022/12/22 03:56:33;;;;;;;54.87;26.73;;;;;;;0.05;100.00;99721.84;5051322;28;20211;-57
2022/12/22 03:59:00;;;;;;;49.57;26.63;;;;;;;-0.01;100.00;99716.66;5051995;28;20200;-58
2022/12/22 04:01:27;;;;;;;50.37;28.30;;;;;;;-0.09;100.00;99713.97;5051945;28;20222;-51
2022/12/22 04:03:54;;;;;;;51.60;27.53;;;;;;;-0.08;100.00;99714.81;5051583;28;20203;-57
2022/12/22 04:06:23;;;;;;;57.83;28.57;;;;;;;-0.10;100.00;99716.47;5051601;28;20203;-51
2022/12/22 04:08:49;;;;;;;55.27;29.67;;;;;;;-0.01;100.00;99714.09;5050825;28;20211;-52
2022/12/22 04:14:02;;;;;;;53.97;27.43;;;;;;;-0.18;100.00;99713.81;5051611;28;20207;-57
2022/12/22 04:16:29;;;;;;;47.77;27.30;;;;;;;-0.25;100.00;99706.03;5051058;28;20240;-57
2022/12/22 04:18:56;;;;;;;51.00;28.27;;;;;;;-0.25;100.00;99706.91;5050885;28;20296;-53
2022/12/22 04:21:25;;;;;;;59.80;28.83;;;;;;;-0.12;100.00;99721.59;5050834;28;20208;-57
2022/12/22 04:23:52;;;;;;;53.83;29.13;;;;;;;-0.32;100.00;99699.94;5050852;28;20215;-58
2022/12/22 04:26:19;;;;;;;52.40;29.17;;;;;;;-0.15;100.00;99708.75;5051088;28;20196;-57
2022/12/22 04:28:45;;;;;;;55.17;29.43;;;;;;;-0.10;100.00;99712.22;5058180;28;20202;-58
2022/12/22 04:31:13;;;;;;;56.43;30.63;;;;;;;-0.02;100.00;99720.03;5070537;28;20194;-58
2022/12/22 04:33:40;;;;;;;52.37;28.80;;;;;;;-0.11;100.00;99722.41;5071060;28;20222;-53
2022/12/22 04:36:08;;;;;;;53.13;28.73;;;;;;;-0.15;100.00;99718.97;5070575;28;20224;-52
2022/12/22 04:38:36;;;;;;;64.23;32.60;;;;;;;-0.07;100.00;99712.28;5070994;28;20232;-52
2022/12/22 04:41:04;;;;;;;52.40;28.57;;;;;;;0.02;100.00;99718.38;5070256;28;20200;-50
2022/12/22 04:43:31;;;;;;;52.47;27.10;;;;;;;0.07;100.00;99721.88;5067968;28;20192;-53
2022/12/22 04:45:58;;;;;;;52.63;27.27;;;;;;;-0.11;100.00;99720.72;5069591;28;20212;-53
2022/12/22 04:48:26;;;;;;;50.00;25.97;;;;;;;-0.21;100.00;99716.28;5063996;28;20188;-58
2022/12/22 04:50:54;;;;;;;49.27;24.30;;;;;;;-0.21;100.00;99715.44;5046085;28;20192;-57
2022/12/22 04:53:21;;;;;;;46.87;25.40;;;;;;;-0.18;100.00;99721.47;5041234;28;20584;-57
2022/12/22 04:55:54;;;;;;;45.20;25.20;;;;;;;-0.25;100.00;99717.09;5041328;28;20314;-53
2022/12/22 04:58:22;;;;;;;45.27;24.70;;;;;;;-0.29;100.00;99722.09;5051672;28;20200;-57
2022/12/22 05:00:49;;;;;;;54.00;26.77;;;;;;;-0.29;100.00;99711.91;5069237;28;20636;-57
2022/12/22 05:03:16;;;;;;;45.33;24.27;;;;;;;-0.33;100.00;99720.31;5069354;28;20203;-57
2022/12/22 05:05:43;;;;;;;50.60;24.73;;;;;;;-0.33;100.00;99720.31;5070413;28;20188;-56
2022/12/22 05:08:10;;;;;;;47.53;24.77;;;;;;;-0.22;100.00;99709.47;5069496;28;20222;-61
2022/12/22 05:10:37;;;;;;;48.20;24.73;;;;;;;-0.15;100.00;99713.00;5070334;28;20203;-52
2022/12/22 05:13:05;;;;;;;46.13;26.47;;;;;;;-0.12;100.00;99715.63;5070111;28;20703;-53
2022/12/22 05:15:34;;;;;;;45.07;24.10;;;;;;;-0.09;100.00;99713.97;5069349;28;20220;-54
2022/12/22 05:18:01;;;;;;;46.03;26.87;;;;;;;-0.08;100.00;99715.69;5069850;28;20196;-58
2022/12/22 05:20:28;;;;;;;42.93;23.93;;;;;;;-0.08;100.00;99717.38;5070192;28;20271;-54
2022/12/22 05:22:56;;;;;;;39.40;22.13;;;;;;;-0.07;100.00;99716.53;5070097;28;20698;-53
2022/12/22 05:25:23;;;;;;;45.83;21.87;;;;;;;-0.04;100.00;99717.47;5070206;28;20195;-58
2022/12/22 05:27:51;;;;;;;38.53;20.63;;;;;;;-0.05;100.00;99705.53;5069761;28;20223;-52
2022/12/22 05:30:20;;;;;;;43.70;22.33;;;;;;;-0.04;100.00;99714.91;5069452;28;20196;-51
2022/12/22 05:32:47;;;;;;;43.43;22.10;;;;;;;-0.05;100.00;99720.84;5068615;28;20203;-57
2022/12/22 05:35:15;;;;;;;39.43;22.50;;;;;;;-0.08;100.00;99720.78;5069788;28;20242;-57
2022/12/22 05:37:42;;;;;;;43.50;23.07;;;;;;;-0.07;100.00;99711.44;5068483;28;20561;-51
2022/12/22 05:40:11;;;;;;;48.43;24.33;;;;;;;-0.01;100.00;99729.41;5069612;28;20203;-52
2022/12/22 05:42:38;;;;;;;51.37;24.57;;;;;;;0.09;100.00;99722.75;5054321;28;20220;-53
2022/12/22 05:45:12;;;;;;;46.50;23.73;;;;;;;0.07;100.00;99722.75;5067878;28;20220;-52
2022/12/22 05:47:40;;;;;;;38.50;22.73;;;;;;;0.02;100.00;99700.50;5063418;28;20293;-50
2022/12/22 05:50:09;;;;;;;39.10;21.37;;;;;;;0.04;100.00;99719.25;5068432;28;20224;-57
2022/12/22 05:52:35;;;;;;;34.17;20.50;;;;;;;-0.02;100.00;99720.91;5067030;28;20298;-57
2022/12/22 05:55:03;;;;;;;36.70;21.63;;;;;;;-0.10;100.00;99719.03;5058068;28;20235;-57
2022/12/22 05:57:30;;;;;;;45.77;21.50;;;;;;;-0.23;100.00;99717.97;5050865;28;20229;-58
2022/12/22 05:59:57;;;;;;;37.47;21.33;;;;;;;-0.25;100.00;99716.22;5047574;28;20597;-57
2022/12/22 06:02:24;;;;;;;39.00;20.43;;;;;;;-0.20;100.00;99712.06;5048840;28;20208;-58
2022/12/22 06:04:52;;;;;;;41.70;21.40;;;;;;;-0.02;100.00;99720.91;5049402;28;20227;-57
2022/12/22 06:07:19;;;;;;;49.37;21.23;;;;;;;-0.02;100.00;99708.16;5049384;28;20204;-58
2022/12/22 06:09:46;;;;;;;47.10;21.50;;;;;;;0.09;100.00;99710.00;5048886;28;20196;-57
2022/12/22 06:12:13;;;;;;;41.37;21.60;;;;;;;0.18;100.00;99715.25;5048639;28;20214;-58
2022/12/22 06:14:40;;;;;;;38.67;20.77;;;;;;;0.20;100.00;99721.25;5049172;28;20207;-57
2022/12/22 06:17:07;;;;;;;42.07;21.70;;;;;;;0.23;100.00;99726.38;5049143;28;20689;-56
2022/12/22 06:19:34;;;;;;;41.07;21.73;;;;;;;0.19;100.00;99722.94;5049233;28;20246;-57
2022/12/22 06:22:02;;;;;;;50.23;23.53;;;;;;;0.24;100.00;99728.09;5049071;28;20200;-51
2022/12/22 06:24:29;;;;;;;47.23;24.63;;;;;;;0.30;100.00;99729.06;5049012;28;20196;-50
2022/12/22 06:26:56;;;;;;;43.90;22.90;;;;;;;0.31;100.00;99732.47;5049072;28;20188;-51
2022/12/22 06:29:23;;;;;;;39.13;21.43;;;;;;;0.36;100.00;99729.16;5049267;28;20250;-51
2022/12/22 06:31:50;;;;;;;42.03;20.97;;;;;;;0.41;100.00;99738.59;5049014;28;20203;-49
2022/12/22 06:34:17;;;;;;;38.40;20.20;;;;;;;0.46;100.00;99729.28;5048375;28;20205;-51
2022/12/22 06:36:44;;;;;;;37.37;20.13;;;;;;;0.53;100.00;99726.00;5048994;28;20225;-51
2022/12/22 06:39:13;;;;;;;41.03;20.53;;;;;;;0.60;100.00;99740.56;5048975;28;20282;-52
2022/12/22 06:44:26;;;;;;;43.60;23.20;;;;;;;0.69;100.00;99746.66;5050688;28;20204;-51
2022/12/22 06:46:53;;;;;;;52.20;24.60;;;;;;;0.69;100.00;99745.81;5056264;28;20218;-51
2022/12/22 06:49:20;;;;;;;60.70;31.53;;;;;;;0.70;100.00;99748.38;5073104;28;20187;-52
2022/12/22 06:51:47;;;;;;;46.43;25.20;;;;;;;0.87;100.00;99750.34;5072196;28;20672;-51
2022/12/22 06:54:16;;;;;;;37.00;20.03;;;;;;;0.93;100.00;99750.41;5072650;28;20200;-57
2022/12/22 06:56:43;;;;;;;53.27;25.67;;;;;;;0.96;100.00;99745.34;5073094;28;20663;-57
2022/12/22 06:59:10;;;;;;;63.50;26.37;;;;;;;0.77;100.00;99745.94;5072549;28;20273;-57
2022/12/22 07:01:36;;;;;;;68.00;31.87;;;;;;;0.77;100.00;99745.94;5072149;28;20640;-58
2022/12/22 07:04:03;;;;;;;58.63;27.00;;;;;;;0.84;100.00;99743.47;5072572;28;20203;-58
2022/12/22 07:06:30;;;;;;;57.70;29.20;;;;;;;0.86;100.00;99746.06;5072629;28;20207;-57
2022/12/22 07:08:57;;;;;;;62.77;25.77;;;;;;;0.94;100.00;99741.91;5072312;28;20199;-58
2022/12/22 07:11:25;;;;;;;47.67;25.10;;;;;;;0.92;100.00;99746.13;5072357;28;20200;-58
2022/12/22 07:13:52;;;;;;;44.30;22.53;;;;;;;0.81;100.00;99745.13;5072239;28;20432;-58
2022/12/22 07:16:19;;;;;;;47.70;23.10;;;;;;;0.92;100.00;99738.47;5072426;28;20727;-52
2022/12/22 07:18:46;;;;;;;39.27;22.03;;;;;;;1.01;100.00;99733.50;5071989;28;20287;-51
2022/12/22 07:21:14;;;;;;;36.33;23.00;;;;;;;1.11;100.00;99745.56;5072062;28;20667;-57
2022/12/22 07:23:41;;;;;;;55.60;27.83;;;;;;;1.11;100.00;99744.69;5072526;28;20288;-57
2022/12/22 07:26:09;;;;;;;67.93;32.07;;;;;;;1.25;100.00;99738.88;5072202;28;20196;-51
2022/12/22 07:28:40;;;;;;;73.97;36.50;;;;;;;1.35;100.00;99748.41;5072068;28;20206;-50
2022/12/22 07:31:08;;;;;;;61.70;33.73;;;;;;;1.17;100.00;99730.28;5071964;28;20197;-57
2022/12/22 07:33:35;;;;;;;79.17;41.37;;;;;;;1.44;100.00;99739.97;5072361;28;20222;-58
2022/12/22 07:36:04;;;;;;;71.53;36.90;;;;;;;1.54;100.00;99748.59;5072310;28;20619;-51
2022/12/22 07:38:37;;;;;;;63.63;34.40;;;;;;;1.62;100.00;99741.88;5072024;28;20201;-58
2022/12/22 07:42:43;;;;;;;50.23;24.13;;;;;;;1.70;100.00;99742.78;5071834;28;20295;-57
2022/12/22 07:43:52;;;;;;;42.50;22.80;;;;;;;1.77;100.00;99747.16;5071484;28;20204;-57
2022/12/22 07:46:19;;;;;;;43.70;21.73;;;;;;;1.91;100.00;99744.75;5071471;28;20209;-57
2022/12/22 07:51:33;;;;;;;45.93;22.47;;;;;;;1.90;100.00;99764.34;5071975;28;20204;-52
2022/12/22 07:54:00;;;;;;;43.57;22.13;;;;;;;1.90;100.00;99755.81;5069883;28;20253;-57
2022/12/22 07:56:27;;;;;;;38.60;21.67;;;;;;;1.96;100.00;99743.91;5053333;28;20223;-50
2022/12/22 07:58:56;;;;;;;39.40;22.67;;;;;;;1.91;100.00;99744.75;5069544;28;20221;-52
2022/12/22 08:01:23;;;;;;;42.10;22.07;;;;;;;1.92;100.00;99742.16;5062571;28;20212;-51
2022/12/22 08:03:50;;;;;;;38.10;20.90;;;;;;;1.87;100.00;99743.84;5049164;28;20199;-50
2022/12/22 08:06:17;;;;;;;38.40;19.57;;;;;;;2.09;100.00;99740.63;5051006;28;20193;-51
2022/12/22 08:08:44;;;;;;;30.53;18.23;;;;;;;1.99;100.00;99740.53;5064203;28;20327;-51
2022/12/22 08:11:11;;;;;;;37.10;19.03;;;;;;;2.08;100.00;99736.34;5070229;28;20199;-51
2022/12/22 08:13:38;;;;;;;41.70;19.10;;;;;;;2.25;100.00;99736.50;5070280;28;20211;-51
2022/12/22 08:16:08;;;;;;;38.83;19.30;;;;;;;2.34;100.00;99734.00;5069881;28;20604;-51
2022/12/22 08:18:36;;;;;;;30.67;19.00;;;;;;;2.25;100.00;99738.22;5065427;28;20196;-57
2022/12/22 08:21:04;;;;;;;37.27;20.43;;;;;;;2.46;100.00;99738.38;5059801;28;20231;-58
2022/12/22 08:23:31;;;;;;;36.40;18.57;;;;;;;2.54;100.00;99742.69;5063812;28;20223;-58
2022/12/22 08:26:03;;;;;;;34.63;18.07;;;;;;;2.70;100.00;99740.25;5068584;28;20269;-58
2022/12/22 08:28:34;;;;;;;38.93;19.93;;;;;;;2.92;100.00;99737.81;5068173;28;20226;-58
2022/12/22 08:31:03;;;;;;;40.50;21.53;;;;;;;3.09;100.00;99735.31;5068934;28;20721;-57
2022/12/22 08:33:32;;;;;;;34.67;21.80;;;;;;;3.17;100.00;99732.78;5069160;28;20595;-57
2022/12/22 08:35:59;;;;;;;50.23;26.57;;;;;;;3.25;100.00;99737.13;5068131;28;20232;-56
2022/12/22 08:38:26;;;;;;;50.23;28.77;;;;;;;3.30;100.00;99729.41;5068825;28;20708;-56
2022/12/22 08:40:54;;;;;;;57.07;31.03;;;;;;;3.26;100.00;99730.28;5065182;28;20223;-57
2022/12/22 08:43:21;;;;;;;42.53;24.87;;;;;;;3.35;100.00;99721.75;5064954;28;20684;-57
2022/12/22 08:45:48;;;;;;;42.60;25.43;;;;;;;3.48;100.00;99718.38;5068061;28;20196;-57
2022/12/22 08:48:15;;;;;;;104.50;40.53;;;;;;;3.56;100.00;99721.81;5068955;28;20587;-58
2022/12/22 08:50:43;;;;;;;60.77;31.37;;;;;;;3.60;100.00;99715.84;5069134;28;20210;-57
2022/12/22 08:53:10;;;;;;;137.43;53.10;;;;;;;3.59;100.00;99707.28;5069341;28;20210;-50
2022/12/22 08:55:37;;;;;;;209.43;72.27;;;;;;;3.72;100.00;99707.31;5069212;28;20224;-51
2022/12/22 08:58:04;;;;;;;101.87;43.33;;;;;;;3.83;100.00;99701.34;5069001;28;20224;-52
2022/12/22 09:00:31;;;;;;;69.10;34.40;;;;;;;3.81;100.00;99697.91;5069076;28;20688;-51
2022/12/22 09:02:58;;;;;;;56.47;32.47;;;;;;;3.89;100.00;99696.22;5068843;28;20204;-51
2022/12/22 09:05:25;;;;;;;53.63;27.33;;;;;;;3.99;100.00;99686.78;5068865;28;20202;-51
2022/12/22 09:07:53;;;;;;;60.97;26.40;;;;;;;3.95;100.00;99685.09;5062665;28;20195;-51
2022/12/22 09:10:20;;;;;;;48.77;26.20;;;;;;;4.01;100.00;99688.50;5068944;28;20196;-51
2022/12/22 09:12:47;;;;;;;51.53;29.90;;;;;;;4.07;100.00;99687.66;5068859;28;20640;-51
2022/12/22 09:15:14;;;;;;;59.90;33.60;;;;;;;4.14;100.00;99684.25;5068890;28;20196;-57
2022/12/22 09:17:42;;;;;;;53.77;32.97;;;;;;;4.24;100.00;99690.22;5068389;28;20236;-52
2022/12/22 09:20:10;;;;;;;51.23;26.33;;;;;;;4.32;100.00;99680.78;5068791;28;20249;-57
2022/12/22 09:22:36;;;;;;;49.60;26.57;;;;;;;4.38;100.00;99681.66;5068642;28;20197;-57
2022/12/22 09:25:06;;;;;;;46.60;24.70;;;;;;;4.48;100.00;99681.63;5068422;28;20204;-57
2022/12/22 09:27:33;;;;;;;39.10;24.00;;;;;;;4.43;100.00;99667.91;5043353;28;20684;-52
2022/12/22 09:29:59;;;;;;;35.60;22.57;;;;;;;4.41;100.00;99672.19;5069055;28;20196;-52
2022/12/22 09:32:28;;;;;;;38.47;23.23;;;;;;;4.34;100.00;99667.09;5069800;28;20200;-57
2022/12/22 09:34:54;;;;;;;41.87;24.93;;;;;;;4.42;100.00;99668.78;5069477;28;20206;-57
2022/12/22 09:37:21;;;;;;;43.17;24.23;;;;;;;4.51;100.00;99666.22;5069860;28;20216;-57
2022/12/22 09:39:48;;;;;;;46.30;26.70;;;;;;;4.59;100.00;99669.63;5069698;28;20201;-57
2022/12/22 09:42:20;;;;;;;55.20;26.90;;;;;;;4.62;100.00;99670.47;5069577;28;20191;-57
2022/12/22 09:44:50;;;;;;;43.87;23.90;;;;;;;4.69;100.00;99661.03;5069497;28;20235;-50
2022/12/22 09:47:22;;;;;;;45.20;25.93;;;;;;;4.65;100.00;99644.75;5069735;28;20232;-51
2022/12/22 09:49:50;;;;;;;55.27;27.50;;;;;;;4.72;100.00;99653.31;5069597;28;20200;-52
2022/12/22 09:52:25;;;;;;;52.67;28.33;;;;;;;4.77;100.00;99659.28;5069841;28;20200;-52
2022/12/22 09:54:52;;;;;;;47.80;27.30;;;;;;;4.79;100.00;99647.28;5069563;28;20252;-57
2022/12/22 09:57:20;;;;;;;54.57;27.10;;;;;;;4.85;100.00;99644.69;5069480;28;20691;-57
2022/12/22 09:59:47;;;;;;;49.90;29.57;;;;;;;4.99;100.00;99642.03;5069553;28;20591;-52
2022/12/22 10:02:28;;;;;;;47.07;28.50;;;;;;;5.01;99.82;99632.59;5069383;28;20609;-58
2022/12/22 10:05:12;;;;;;;54.73;30.33;;;;;;;4.98;99.93;99635.19;5069354;28;20640;-57
2022/12/22 10:07:41;;;;;;;68.70;31.53;;;;;;;5.00;100.00;99629.19;5069206;28;20188;-51
2022/12/22 10:10:14;;;;;;;58.33;31.77;;;;;;;5.08;100.00;99629.13;5069188;28;20203;-51
2022/12/22 10:12:43;;;;;;;66.13;32.87;;;;;;;4.97;100.00;99620.59;5068432;28;20290;-57
2022/12/22 10:15:11;;;;;;;66.33;33.43;;;;;;;5.12;100.00;99615.41;5068896;28;20210;-51
2022/12/22 10:17:38;;;;;;;64.40;33.50;;;;;;;5.18;100.00;99605.09;5068516;28;20739;-50
2022/12/22 10:20:20;;;;;;;72.07;36.10;;;;;;;5.20;100.00;99592.19;5062469;28;20192;-51
2022/12/22 10:22:50;;;;;;;66.80;33.90;;;;;;;5.37;100.00;99595.53;5063816;28;20191;-51
2022/12/22 10:25:29;;;;;;;57.93;34.10;;;;;;;5.45;100.00;99596.31;5068821;28;20198;-52
2022/12/22 10:28:00;;;;;;;69.27;38.67;;;;;;;5.52;99.58;99600.59;5066081;28;20253;-52
2022/12/22 10:30:29;;;;;;;65.57;37.53;;;;;;;5.55;98.99;99597.97;5063606;28;20640;-57
2022/12/22 10:33:05;;;;;;;72.77;35.57;;;;;;;5.65;98.92;99597.03;5068767;28;20584;-57
2022/12/22 10:35:50;;;;;;;62.77;34.03;;;;;;;5.74;97.64;99593.56;5068704;28;20579;-57
2022/12/22 10:38:21;;;;;;;65.77;36.10;;;;;;;5.82;97.13;99586.59;5067865;28;20223;-57
2022/12/22 10:40:50;;;;;;;59.23;35.30;;;;;;;5.90;96.41;99582.25;5068776;28;20215;-57
2022/12/22 10:43:22;;;;;;;66.07;36.40;;;;;;;6.02;96.13;99584.72;5069059;28;20206;-58
2022/12/22 10:45:51;;;;;;;65.43;35.83;;;;;;;6.05;95.42;99569.25;5068979;28;20203;-58
2022/12/22 10:48:26;;;;;;;70.47;37.80;;;;;;;6.00;95.21;99573.59;5069048;28;20587;-57
2022/12/22 10:50:53;;;;;;;81.40;41.20;;;;;;;5.96;95.38;99571.94;5068823;28;20203;-58
2022/12/22 10:53:20;;;;;;;86.17;46.93;;;;;;;6.04;95.12;99570.13;5068886;28;20192;-57
2022/12/22 10:55:47;;;;;;;78.07;39.23;;;;;;;6.09;94.87;99565.78;5060842;28;20204;-57
2022/12/22 10:58:20;;;;;;;68.13;37.30;;;;;;;6.10;94.87;99553.72;5048953;28;20712;-57
2022/12/22 11:01:02;;;;;;;67.53;39.80;;;;;;;6.14;95.22;99553.69;5048769;28;20798;-57
2022/12/22 11:03:30;;;;;;;76.33;41.73;;;;;;;6.21;94.88;99549.31;5048820;28;20688;-58
2022/12/22 11:05:58;;;;;;;72.57;39.03;;;;;;;6.35;93.41;99544.88;5048361;28;20250;-58
2022/12/22 11:08:26;;;;;;;73.70;39.23;;;;;;;6.16;93.92;99502.16;5048891;28;20203;-53
2022/12/22 11:11:00;;;;;;;72.57;39.53;;;;;;;6.42;93.79;99535.38;5054245;28;20192;-57
2022/12/22 11:13:51;;;;;;;73.03;39.20;;;;;;;6.53;93.33;99529.22;5065244;28;20196;-57
2022/12/22 11:16:28;;;;;;;87.10;41.43;;;;;;;6.45;94.06;99520.69;5067763;28;20228;-58
2022/12/22 11:19:08;;;;;;;74.30;41.30;;;;;;;6.47;93.11;99521.53;5068066;28;20195;-58
2022/12/22 11:21:45;;;;;;;63.30;35.60;;;;;;;6.53;92.70;99518.88;5067733;28;20200;-58
2022/12/22 11:24:25;;;;;;;64.40;34.80;;;;;;;6.47;92.33;99511.22;5068459;28;20605;-59
2022/12/22 11:27:04;;;;;;;57.00;29.40;;;;;;;6.52;92.58;99514.59;5068495;28;20192;-59
2022/12/22 11:29:57;;;;;;;55.37;28.93;;;;;;;6.55;91.72;99513.69;5068980;28;20206;-57
2022/12/22 11:32:36;;;;;;;42.00;24.70;;;;;;;6.56;91.38;99499.94;5071478;28;20200;-52
2022/12/22 11:35:12;;;;;;;49.40;24.00;;;;;;;6.57;91.86;99506.78;5072109;28;20200;-58
2022/12/22 11:37:48;;;;;;;42.10;23.80;;;;;;;6.61;92.11;99499.88;5072137;28;20227;-58
2022/12/22 11:40:26;;;;;;;44.43;24.03;;;;;;;6.69;91.22;99496.31;5071709;28;20203;-57
2022/12/22 11:43:10;;;;;;;44.57;25.20;;;;;;;6.69;92.57;99493.75;5072139;28;20696;-57
2022/12/22 11:45:50;;;;;;;46.90;25.17;;;;;;;6.66;91.56;99495.53;5072397;28;20282;-58
2022/12/22 11:48:44;;;;;;;39.17;24.17;;;;;;;6.68;91.72;99491.19;5071920;28;20198;-58
2022/12/22 11:51:18;;;;;;;35.80;21.37;;;;;;;6.76;91.26;99495.38;5061592;28;20201;-58
2022/12/22 11:54:16;;;;;;;41.57;21.83;;;;;;;6.86;90.32;99490.94;5064701;28;20195;-58
2022/12/22 11:56:47;;;;;;;34.27;21.03;;;;;;;6.81;89.87;99491.00;5067961;28;20227;-58
2022/12/22 11:59:33;;;;;;;33.60;21.30;;;;;;;6.83;90.09;99497.00;5064721;28;20196;-58
2022/12/22 12:02:31;;;;;;;40.40;20.77;;;;;;;6.90;89.98;99490.00;5064006;28;20203;-58
2022/12/22 12:05:30;;;;;;;36.67;20.27;;;;;;;6.88;90.48;99492.59;5069930;28;20203;-58
2022/12/22 12:08:08;;;;;;;36.90;19.43;;;;;;;6.88;90.59;99495.19;5070278;28;20249;-57
2022/12/22 12:10:44;;;;;;;39.63;20.47;;;;;;;6.79;91.16;99487.56;5065075;28;20192;-58
2022/12/22 12:13:20;;;;;;;30.53;20.43;;;;;;;6.88;91.12;99489.19;5069427;28;20188;-53
2022/12/22 12:15:54;;;;;;;35.93;21.60;;;;;;;6.84;92.12;99490.09;5069523;28;20223;-58
2022/12/22 12:18:47;;;;;;;34.03;20.37;;;;;;;6.84;92.23;99482.38;5066908;28;20219;-51
2022/12/22 12:21:24;;;;;;;32.37;20.63;;;;;;;6.74;92.63;99475.63;5064636;28;20206;-52
2022/12/22 12:24:07;;;;;;;32.73;19.47;;;;;;;6.96;92.29;99469.28;5068719;28;20203;-51
2022/12/22 12:26:40;;;;;;;35.87;19.03;;;;;;;7.03;91.11;99463.16;5064924;28;20195;-51
2022/12/22 12:29:15;;;;;;;35.97;21.03;;;;;;;6.99;92.29;99474.41;5069486;28;20196;-52
2022/12/22 12:31:48;;;;;;;36.80;21.00;;;;;;;7.10;92.49;99471.66;5069884;28;20195;-52
2022/12/22 12:34:18;;;;;;;34.43;21.90;;;;;;;7.11;92.58;99466.44;5065268;28;20684;-52
2022/12/22 12:36:50;;;;;;;35.03;22.47;;;;;;;7.13;92.55;99474.19;5069848;28;20192;-52
2022/12/22 12:39:24;;;;;;;33.17;20.47;;;;;;;7.02;92.61;99466.59;5065328;28;20200;-58
2022/12/22 12:41:59;;;;;;;35.57;20.97;;;;;;;7.03;91.23;99464.88;5069106;28;20703;-52
2022/12/22 12:44:30;;;;;;;36.27;21.20;;;;;;;6.97;91.40;99465.84;5069601;28;20278;-51
2022/12/22 12:47:22;;;;;;;30.43;20.13;;;;;;;6.95;90.83;99467.59;5065042;28;20231;-53
2022/12/22 12:49:58;;;;;;;36.17;21.27;;;;;;;7.01;91.97;99470.06;5068208;28;20524;-52
2022/12/22 12:53:14;;;;;;;41.20;23.27;;;;;;;7.15;91.90;99478.44;5069393;28;20279;-52
2022/12/22 12:56:07;;;;;;;37.17;21.90;;;;;;;7.10;91.68;99477.69;5066349;28;20199;-52
2022/12/22 12:58:54;;;;;;;34.20;20.20;;;;;;;7.02;92.74;99471.75;5053793;28;20699;-54
2022/12/22 13:01:54;;;;;;;35.73;21.27;;;;;;;7.04;92.66;99470.03;5065907;28;20198;-51
2022/12/22 13:05:13;;;;;;;38.87;20.40;;;;;;;7.00;91.87;99470.94;5030570;28;20195;-50
2022/12/22 13:08:17;;;;;;;36.47;19.87;;;;;;;7.00;91.83;99476.09;5065780;28;20656;-51
2022/12/22 13:10:47;;;;;;;31.47;19.87;;;;;;;7.02;92.93;99473.50;5066599;28;20225;-57
2022/12/22 13:13:47;;;;;;;34.97;20.77;;;;;;;6.99;91.71;99448.59;5040115;28;20204;-56
2022/12/22 13:16:39;;;;;;;31.93;20.00;;;;;;;6.93;93.07;99466.75;5050059;28;20228;-50
2022/12/22 13:19:17;;;;;;;37.30;20.27;;;;;;;6.97;92.50;99481.31;5040067;28;20618;-52
2022/12/22 13:21:45;;;;;;;26.40;18.60;;;;;;;7.06;92.23;99473.44;5050182;28;20210;-57
2022/12/22 13:24:20;;;;;;;32.87;20.13;;;;;;;7.15;92.32;99478.44;5049973;28;20200;-57
2022/12/22 13:26:49;;;;;;;40.00;22.77;;;;;;;7.21;92.54;99483.53;5049677;28;20295;-56
2022/12/22 13:29:23;;;;;;;31.87;20.67;;;;;;;7.20;92.02;99486.97;5050031;28;20193;-57
2022/12/22 13:31:54;;;;;;;34.37;21.67;;;;;;;7.18;92.15;99481.00;5049635;28;20201;-57
2022/12/22 13:34:40;;;;;;;36.03;19.30;;;;;;;7.21;91.84;99477.50;5050170;28;20201;-52
2022/12/22 13:37:20;;;;;;;32.40;19.27;;;;;;;7.25;91.53;99485.16;5049538;28;20208;-52
2022/12/22 13:40:13;;;;;;;35.33;22.80;;;;;;;7.20;91.25;99484.41;5055844;28;20291;-51
2022/12/22 13:42:43;;;;;;;38.80;22.13;;;;;;;7.33;90.52;99479.91;5069827;28;20192;-51
2022/12/22 13:45:18;;;;;;;40.83;22.77;;;;;;;7.25;89.73;99479.16;5068828;28;20204;-51
2022/12/22 13:47:47;;;;;;;46.70;24.67;;;;;;;7.27;90.27;99473.09;5069162;28;20214;-51
2022/12/22 13:50:23;;;;;;;115.40;37.93;;;;;;;7.29;90.46;99473.94;5048412;28;20308;-52
2022/12/22 13:52:52;;;;;;;77.17;30.30;;;;;;;7.25;90.26;99471.41;5050151;28;20254;-56
2022/12/22 13:55:25;;;;;;;44.50;21.87;;;;;;;7.36;89.58;99477.25;5068284;28;20231;-57
2022/12/22 13:57:54;;;;;;;31.97;19.47;;;;;;;7.28;91.21;99474.81;5068640;28;20234;-57
2022/12/22 14:00:23;;;;;;;34.77;21.63;;;;;;;7.30;90.77;99472.19;5069080;28;20230;-53
2022/12/22 14:02:50;;;;;;;39.37;23.40;;;;;;;7.28;91.50;99458.47;5068828;28;20223;-50
2022/12/22 14:05:18;;;;;;;41.13;23.10;;;;;;;7.24;91.43;99462.81;5068872;28;20215;-49
2022/12/22 14:08:02;;;;;;;44.23;22.03;;;;;;;7.17;90.88;99465.53;5068275;28;20220;-50
2022/12/22 14:10:33;;;;;;;42.53;22.90;;;;;;;7.16;91.42;99469.81;5068683;28;20224;-56
2022/12/22 14:13:04;;;;;;;43.63;23.70;;;;;;;7.12;91.41;99475.91;5068402;28;20704;-57
2022/12/22 14:15:31;;;;;;;28.00;19.70;;;;;;;7.14;91.29;99462.97;5067960;28;20199;-57
2022/12/22 14:17:58;;;;;;;35.13;20.03;;;;;;;7.13;91.33;99453.53;5069048;28;20317;-57
2022/12/22 14:20:28;;;;;;;32.40;21.53;;;;;;;7.19;91.73;99454.31;5069193;28;20515;-58
2022/12/22 14:22:59;;;;;;;27.33;19.97;;;;;;;7.15;92.22;99457.78;5069249;28;20635;-58
2022/12/22 14:25:32;;;;;;;35.43;21.80;;;;;;;7.12;92.12;99460.41;5069245;28;20200;-52
2022/12/22 14:28:00;;;;;;;33.73;21.17;;;;;;;7.20;92.88;99455.16;5068885;28;20196;-57
2022/12/22 14:30:29;;;;;;;33.13;20.83;;;;;;;7.16;92.54;99453.50;5069301;28;20199;-58
2022/12/22 14:32:57;;;;;;;34.33;21.23;;;;;;;6.86;93.96;99440.19;5068943;28;20206;-52
2022/12/22 14:35:27;;;;;;;35.07;21.13;;;;;;;6.79;94.92;99458.34;5068840;28;20203;-58
2022/12/22 14:38:07;;;;;;;34.17;21.93;;;;;;;6.80;95.22;99465.22;5069215;28;20231;-57
2022/12/22 14:40:38;;;;;;;31.67;21.17;;;;;;;6.78;95.77;99457.50;5069114;28;20238;-57
2022/12/22 14:43:13;;;;;;;36.67;21.77;;;;;;;6.76;94.95;99458.41;5069107;28;20202;-57
2022/12/22 14:45:40;;;;;;;38.43;23.10;;;;;;;6.72;95.68;99456.75;5069086;28;20199;-58
2022/12/22 14:48:08;;;;;;;39.47;23.63;;;;;;;6.67;96.88;99453.34;5068391;28;20207;-52
2022/12/22 14:50:38;;;;;;;48.07;26.03;;;;;;;6.55;97.02;99444.91;5068615;28;20202;-51
2022/12/22 14:53:05;;;;;;;51.70;26.80;;;;;;;6.50;97.49;99446.72;5043120;28;20614;-53
2022/12/22 14:55:37;;;;;;;43.73;27.43;;;;;;;6.48;97.78;99452.78;5027930;28;20225;-52
2022/12/22 14:58:11;;;;;;;42.67;26.50;;;;;;;6.42;98.41;99453.72;5026462;28;20312;-57
2022/12/22 15:00:40;;;;;;;56.97;30.10;;;;;;;6.32;98.82;99452.09;5028333;28;20204;-58
2022/12/22 15:03:29;;;;;;;52.93;31.30;;;;;;;6.29;99.20;99449.59;5027667;28;20215;-58
2022/12/22 15:05:56;;;;;;;54.87;30.17;;;;;;;6.19;99.71;99455.72;5028414;28;20205;-57
2022/12/22 15:08:36;;;;;;;62.80;31.27;;;;;;;6.04;100.00;99456.75;5032701;28;20208;-57
2022/12/22 15:11:03;;;;;;;60.83;30.10;;;;;;;6.03;100.00;99449.03;5032746;28;20287;-51
2022/12/22 15:13:32;;;;;;;66.07;32.17;;;;;;;6.00;100.00;99452.50;5032501;28;20196;-52
2022/12/22 15:15:59;;;;;;;61.40;31.80;;;;;;;5.99;100.00;99462.81;5032145;28;20237;-52